Terminal Aerodrome Forecast
Issued by NWS

Home | Current Version | Previous Version | Text Only | Print | Product List | Glossary Off
Versions: 1 2 3 4 5 6 7 8 9 10 11 12 13 14 15 16 17 18 19 20 21

000
FTUS43 KGRB 201100
TAFCWA
TAF
KCWA 201129Z 2012/2112 17004KT 6SM BR SCT006 OVC012
      TEMPO 2012/2016 3SM -FZDZSN BR OVC006
     FM201900 15005KT P6SM OVC018
     FM210100 15004KT 4SM BR SCT008 OVC012
      TEMPO 2108/2112 OVC006=

USA.gov is the U.S. government's official web portal to all federal, state and local government web resources and services.